Language: 


Des rapports , des résumés tant et plus, au choix de chacun....


Données statistiques de la station
Quotidien Rapport Mars 15, 2017 Unités:  Anglais    Métrique   les deux
« Précédent Jour
Suivant Jour »
Quotidien Hebdomadaire Mensuel Annuel Actuel
  Haut: Bas: Moyen:
Température: 68.5 °F 42.6 °F 54.7 °F
Pt de rosée: 56.1 °F 40.1 °F 47.3 °F
Humidité: 98 % 45 % 80 %
Vitesse du vent: 7.6 mph 0 mph 2.1 mph
Rafales: 8.5 mph - -
Vent:- - SSW
Pression: 30.5 in 30.4 in -
Précipitation: 0 in    
Historical Graphs
 
 
Données statistiques pour Mars 15, 2017
Heure Température Point de rosée Pression Vent Vitesse du vent Refales Humidité Pluie (taux horaire)
00:02 50 °F 48.9 °F 30.5 in WSW 3.8 mph 5.8 mph 96 % 0 in
00:07 50 °F 48.9 °F 30.5 in WSW 4.9 mph 5.6 mph 96 % 0 in
00:12 49.8 °F 48.7 °F 30.5 in WSW 6.3 mph 6.3 mph 96 % 0 in
00:17 49.8 °F 48.7 °F 30.5 in WSW 5.6 mph 6.3 mph 96 % 0 in
00:22 49.8 °F 48.7 °F 30.5 in WSW 5.6 mph 6.7 mph 96 % 0 in
00:27 49.8 °F 48.7 °F 30.5 in WSW 4.7 mph 6.7 mph 96 % 0 in
00:32 49.8 °F 48.7 °F 30.5 in WSW 4.5 mph 7.4 mph 96 % 0 in
00:37 49.8 °F 48.7 °F 30.5 in WSW 4.3 mph 7.4 mph 96 % 0 in
00:42 49.8 °F 48.7 °F 30.5 in WSW 5.4 mph 6 mph 96 % 0 in
00:47 49.8 °F 48.7 °F 30.5 in Calm   5.6 mph 96 % 0 in
00:52 49.8 °F 48.7 °F 30.5 in WSW 4 mph 4.9 mph 96 % 0 in
00:57 49.8 °F 48.7 °F 30.5 in WSW 3.6 mph 4.7 mph 96 % 0 in
01:02 49.8 °F 48.7 °F 30.5 in WSW 3.6 mph 5.8 mph 96 % 0 in
01:07 49.6 °F 48.6 °F 30.5 in SW 3.8 mph 5.8 mph 96 % 0 in
01:12 49.6 °F 48.6 °F 30.4 in WSW 4.3 mph 5.6 mph 96 % 0 in
01:17 49.6 °F 48.6 °F 30.4 in WSW 4.3 mph 5.8 mph 96 % 0 in
01:22 49.6 °F 48.6 °F 30.4 in WSW 3.8 mph 5.8 mph 96 % 0 in
01:27 49.6 °F 48.6 °F 30.5 in WSW 4.7 mph 5.4 mph 96 % 0 in
01:32 49.6 °F 48.6 °F 30.5 in WSW 4.3 mph 5.4 mph 96 % 0 in
01:37 49.6 °F 48.6 °F 30.5 in WSW 4.5 mph 4.7 mph 96 % 0 in
01:42 49.6 °F 48.6 °F 30.5 in Calm   5.4 mph 96 % 0 in
01:47 49.6 °F 48.6 °F 30.5 in WSW 5.4 mph 5.4 mph 96 % 0 in
01:52 49.5 °F 48.6 °F 30.4 in Calm   5.4 mph 97 % 0 in
01:57 49.5 °F 48.6 °F 30.4 in Calm   4 mph 97 % 0 in
02:02 49.5 °F 48.6 °F 30.4 in Calm   3.1 mph 97 % 0 in
02:07 49.5 °F 48.6 °F 30.4 in Calm   3.1 mph 97 % 0 in
02:12 49.5 °F 48.6 °F 30.4 in WSW 4.7 mph 6 mph 97 % 0 in
02:17 49.5 °F 48.6 °F 30.4 in WSW 5.6 mph 6 mph 97 % 0 in
02:22 49.5 °F 48.6 °F 30.5 in WSW 6.3 mph 6.5 mph 97 % 0 in
02:27 49.5 °F 48.6 °F 30.5 in West 5.6 mph 7.4 mph 97 % 0 in
02:32 49.5 °F 48.6 °F 30.5 in WSW 4.3 mph 7.4 mph 97 % 0 in
02:37 49.5 °F 48.6 °F 30.4 in WSW 3.8 mph 5.8 mph 97 % 0 in
02:42 49.3 °F 48.6 °F 30.4 in WSW 5.4 mph 5.6 mph 97 % 0 in
02:47 49.3 °F 48.6 °F 30.4 in WSW 4 mph 5.6 mph 97 % 0 in
02:52 49.3 °F 48.6 °F 30.4 in West 5.4 mph 5.8 mph 97 % 0 in
02:57 49.3 °F 48.6 °F 30.4 in West 5.4 mph 6 mph 97 % 0 in
03:02 49.3 °F 48.6 °F 30.4 in WSW 5.8 mph 6 mph 97 % 0 in
03:07 49.5 °F 48.6 °F 30.4 in West 4.9 mph 6 mph 97 % 0 in
03:12 49.5 °F 48.6 °F 30.4 in West 5.4 mph 6 mph 97 % 0 in
03:17 49.5 °F 48.6 °F 30.4 in West 4.9 mph 6.5 mph 97 % 0 in
03:22 49.5 °F 48.6 °F 30.4 in West 4.3 mph 6.5 mph 97 % 0 in
03:28 49.5 °F 48.6 °F 30.4 in Calm   5.8 mph 97 % 0 in
03:33 49.5 °F 48.6 °F 30.4 in West 4 mph 5.8 mph 97 % 0 in
03:38 49.5 °F 48.6 °F 30.4 in West 4.3 mph 5.8 mph 97 % 0 in
03:43 49.5 °F 48.6 °F 30.4 in West 4.3 mph 5.8 mph 97 % 0 in
03:48 49.3 °F 48.6 °F 30.4 in WSW 3.4 mph 5.8 mph 97 % 0 in
03:53 49.3 °F 48.6 °F 30.4 in West 3.8 mph 4.7 mph 97 % 0 in
03:58 49.3 °F 48.6 °F 30.4 in Calm   4 mph 97 % 0 in
04:03 49.3 °F 48.6 °F 30.4 in WSW 4.9 mph 5.6 mph 97 % 0 in
04:08 49.3 °F 48.6 °F 30.4 in WSW 3.8 mph 6.3 mph 97 % 0 in
04:13 49.3 °F 48.6 °F 30.4 in WSW 5.4 mph 6.3 mph 97 % 0 in
04:18 49.1 °F 48.4 °F 30.4 in WSW 6.3 mph 6.3 mph 97 % 0 in
04:23 49.1 °F 48.4 °F 30.4 in WSW 4.9 mph 6.3 mph 97 % 0 in
04:28 49.1 °F 48.4 °F 30.4 in West 4.3 mph 6 mph 97 % 0 in
04:33 49.1 °F 48.4 °F 30.4 in West 6 mph 7.4 mph 97 % 0 in
04:38 49.1 °F 48.4 °F 30.4 in WSW 5.8 mph 7.4 mph 97 % 0 in
04:43 48.9 °F 48 °F 30.4 in WSW 5.4 mph 7.4 mph 97 % 0 in
04:48 48.9 °F 48 °F 30.4 in WSW 4.5 mph 5.8 mph 97 % 0 in
04:53 48.9 °F 48 °F 30.4 in WSW 4.3 mph 5.8 mph 97 % 0 in
04:58 48.9 °F 48 °F 30.4 in Calm   5.6 mph 97 % 0 in
05:03 48.7 °F 47.8 °F 30.4 in Calm   5.6 mph 97 % 0 in
05:08 48.7 °F 47.8 °F 30.4 in Calm   4.3 mph 97 % 0 in
05:13 48.6 °F 47.8 °F 30.4 in WSW 3.4 mph 3.8 mph 97 % 0 in
05:18 48.4 °F 47.7 °F 30.4 in Calm   3.8 mph 97 % 0 in
05:23 48.4 °F 47.7 °F 30.4 in Calm   3.6 mph 97 % 0 in
05:28 48.4 °F 47.7 °F 30.4 in WSW 3.4 mph 3.8 mph 97 % 0 in
05:33 48.2 °F 47.5 °F 30.4 in Calm   3.8 mph 97 % 0 in
05:38 48.2 °F 47.5 °F 30.4 in Calm     97 % 0 in
05:43 48.2 °F 47.5 °F 30.4 in Calm     97 % 0 in
05:48 48.2 °F 47.5 °F 30.4 in Calm     97 % 0 in
05:53 48.2 °F 47.5 °F 30.4 in Calm     97 % 0 in
05:58 48.2 °F 47.7 °F 30.4 in Calm   3.1 mph 98 % 0 in
06:03 48.2 °F 47.7 °F 30.4 in Calm   3.6 mph 98 % 0 in
06:08 48.2 °F 47.7 °F 30.4 in Calm   3.6 mph 98 % 0 in
06:13 48.2 °F 47.7 °F 30.4 in Calm     98 % 0 in
06:18 48 °F 47.1 °F 30.4 in Calm     97 % 0 in
06:23 48 °F 47.1 °F 30.4 in Calm     97 % 0 in
06:28 47.8 °F 47.1 °F 30.4 in Calm     97 % 0 in
06:33 47.8 °F 47.1 °F 30.4 in West 3.8 mph 4.3 mph 97 % 0 in
06:38 47.7 °F 47.1 °F 30.4 in Calm   4.3 mph 98 % 0 in
06:43 47.7 °F 47.1 °F 30.4 in Calm   4 mph 98 % 0 in
06:48 47.7 °F 47.1 °F 30.4 in Calm     98 % 0 in
06:53 47.7 °F 47.1 °F 30.4 in Calm     98 % 0 in
06:58 47.7 °F 47.1 °F 30.4 in Calm     98 % 0 in
07:03 47.7 °F 47.1 °F 30.4 in Calm   1.1 mph 98 % 0 in
07:08 47.7 °F 47.1 °F 30.5 in Calm   1.1 mph 98 % 0 in
07:13 47.7 °F 47.1 °F 30.5 in Calm   1.3 mph 98 % 0 in
07:18 47.8 °F 47.3 °F 30.5 in Calm   1.3 mph 98 % 0 in
07:23 47.8 °F 47.3 °F 30.5 in Calm   0.9 mph 98 % 0 in
07:28 47.8 °F 47.3 °F 30.5 in Calm     98 % 0 in
07:33 47.8 °F 47.3 °F 30.5 in Calm     98 % 0 in
07:38 47.8 °F 47.3 °F 30.5 in Calm     98 % 0 in
07:43 47.8 °F 47.3 °F 30.5 in Calm     98 % 0 in
07:48 47.8 °F 47.3 °F 30.5 in Calm     98 % 0 in
07:53 48 °F 47.5 °F 30.5 in Calm     98 % 0 in
07:58 48.2 °F 47.7 °F 30.5 in Calm     98 % 0 in
08:03 48.2 °F 47.7 °F 30.5 in Calm     98 % 0 in
08:08 48.4 °F 47.8 °F 30.5 in Calm     98 % 0 in
08:13 48.4 °F 47.8 °F 30.5 in Calm     98 % 0 in
08:18 48.4 °F 47.8 °F 30.5 in Calm     98 % 0 in
08:23 48.6 °F 48 °F 30.5 in Calm     98 % 0 in
08:28 48.6 °F 48 °F 30.5 in Calm     98 % 0 in
08:33 48.7 °F 48.2 °F 30.5 in Calm     98 % 0 in
08:38 48.9 °F 48.4 °F 30.5 in Calm     98 % 0 in
08:43 49.3 °F 48.7 °F 30.5 in Calm     98 % 0 in
08:48 49.5 °F 48.9 °F 30.5 in Calm     98 % 0 in
08:53 49.8 °F 48.9 °F 30.5 in Calm     97 % 0 in
08:58 50.2 °F 49.5 °F 30.5 in Calm     97 % 0 in
09:03 50.4 °F 49.5 °F 30.5 in Calm     97 % 0 in
09:06 50.5 °F 49.6 °F 30.5 in Calm     97 % 0 in
09:11 50.9 °F 50.2 °F 30.5 in Calm     97 % 0 in
09:16 51.3 °F 50.4 °F 30.5 in Calm     97 % 0 in
09:21 51.6 °F 50.7 °F 30.5 in Calm     97 % 0 in
09:26 52 °F 51.1 °F 30.5 in Calm     97 % 0 in
09:31 52.3 °F 51.4 °F 30.5 in Calm     97 % 0 in
09:36 52.9 °F 51.6 °F 30.5 in Calm     96 % 0 in
09:41 53.2 °F 52.2 °F 30.5 in Calm     96 % 0 in
09:46 53.4 °F 52.2 °F 30.5 in Calm     95 % 0 in
09:51 54 °F 52.7 °F 30.5 in Calm     95 % 0 in
09:56 54.1 °F 52.9 °F 30.5 in Calm     95 % 0 in
10:01 54.9 °F 53.4 °F 30.5 in Calm     95 % 0 in
10:06 55.6 °F 53.8 °F 30.5 in Calm     94 % 0 in
10:11 55.6 °F 54 °F 30.5 in Calm     94 % 0 in
10:16 56.3 °F 54.7 °F 30.5 in Calm     94 % 0 in
10:21 56.3 °F 54.3 °F 30.5 in Calm   2.7 mph 93 % 0 in
10:26 56.3 °F 54.3 °F 30.5 in Calm   3.1 mph 93 % 0 in
10:31 55.9 °F 54 °F 30.5 in Calm   3.1 mph 93 % 0 in
10:36 55.6 °F 53.2 °F 30.5 in Calm   3.1 mph 92 % 0 in
10:41 55.8 °F 53.4 °F 30.5 in Calm   2.9 mph 92 % 0 in
10:46 56.7 °F 54.3 °F 30.5 in Calm   2.5 mph 92 % 0 in
10:51 57.2 °F 54.9 °F 30.5 in NE 1.3 mph 3.6 mph 92 % 0 in
10:56 57.2 °F 54.3 °F 30.5 in East 2.7 mph 4.3 mph 90 % 0 in
11:01 57.4 °F 54 °F 30.5 in ESE 1.6 mph 4.3 mph 88 % 0 in
11:06 58.1 °F 54.9 °F 30.5 in SE 2.5 mph 3.4 mph 89 % 0 in
11:11 59.4 °F 56.1 °F 30.5 in SSE 2.7 mph 3.4 mph 89 % 0 in
11:16 60.6 °F 55.4 °F 30.5 in Calm   3.4 mph 83 % 0 in
11:21 61.3 °F 54.3 °F 30.5 in East 2.7 mph 3.4 mph 78 % 0 in
11:26 61.5 °F 53.6 °F 30.5 in ENE 3.4 mph 3.8 mph 75 % 0 in
11:31 62.2 °F 52 °F 30.5 in ESE 3.1 mph 3.8 mph 69 % 0 in
11:36 63 °F 53.2 °F 30.5 in ENE 2.9 mph 3.8 mph 71 % 0 in
11:41 63.1 °F 54.3 °F 30.5 in South 2 mph 3.8 mph 73 % 0 in
11:46 63.9 °F 54.9 °F 30.5 in South 4.3 mph 4.9 mph 73 % 0 in
11:51 63.9 °F 51.3 °F 30.5 in SSE 3.8 mph 5.4 mph 64 % 0 in
11:56 64 °F 53.2 °F 30.5 in SW 2.2 mph 5.4 mph 68 % 0 in
12:02 64.2 °F 51.1 °F 30.5 in ESE 2.5 mph 4.7 mph 62 % 0 in
12:07 65.1 °F 51.8 °F 30.5 in Calm   4.7 mph 62 % 0 in
12:12 65.7 °F 52.7 °F 30.5 in SSE 1.6 mph 4 mph 63 % 0 in
12:17 66 °F 51.3 °F 30.5 in ESE 2.9 mph 4.9 mph 59 % 0 in
12:22 65.1 °F 50 °F 30.5 in South 3.4 mph 6.3 mph 58 % 0 in
12:27 63.7 °F 48.6 °F 30.5 in SSE 2.9 mph 6.3 mph 58 % 0 in
12:32 63.3 °F 48.4 °F 30.5 in Calm   4.3 mph 58 % 0 in
12:37 64.2 °F 46.8 °F 30.5 in ENE 2.7 mph 4 mph 53 % 0 in
12:42 64.9 °F 47.8 °F 30.5 in ESE 2.2 mph 3.6 mph 54 % 0 in
12:47 65.3 °F 49.3 °F 30.5 in SE 1.6 mph 3.4 mph 56 % 0 in
12:52 66 °F 49.8 °F 30.5 in SSE 2.2 mph 2.9 mph 56 % 0 in
12:57 66.4 °F 48.7 °F 30.5 in NNW 2.2 mph 2.7 mph 53 % 0 in
13:02 66 °F 47.8 °F 30.5 in Calm   4 mph 52 % 0 in
13:07 66.7 °F 49.1 °F 30.5 in SW 1.3 mph 4 mph 53 % 0 in
13:12 66.7 °F 48 °F 30.5 in SE 1.3 mph 2.5 mph 51 % 0 in
13:17 66.7 °F 48 °F 30.5 in WSW 3.4 mph 5.8 mph 51 % 0 in
13:22 66.6 °F 47.3 °F 30.5 in WSW 2 mph 5.8 mph 50 % 0 in
13:27 66.7 °F 46.4 °F 30.5 in Calm   3.4 mph 48 % 0 in
13:32 66.6 °F 45.1 °F 30.5 in Calm   3.1 mph 46 % 0 in
13:37 66.9 °F 47.1 °F 30.5 in WSW 3.4 mph 3.4 mph 49 % 0 in
13:42 67.1 °F 47.3 °F 30.4 in WSW 4 mph 4.9 mph 49 % 0 in
13:47 67.1 °F 47.3 °F 30.4 in Calm   4.9 mph 49 % 0 in
13:52 67.1 °F 46.8 °F 30.4 in Calm   4.5 mph 48 % 0 in
13:57 67.6 °F 47.1 °F 30.4 in Calm   3.6 mph 48 % 0 in
14:02 67.5 °F 46.6 °F 30.4 in North 3.4 mph 3.4 mph 47 % 0 in
14:07 67.3 °F 46.4 °F 30.5 in WNW 4.3 mph 4.9 mph 47 % 0 in
14:12 66.9 °F 46 °F 30.5 in Calm   5.6 mph 47 % 0 in
14:17 66.2 °F 45.3 °F 30.5 in North 3.1 mph 5.6 mph 47 % 0 in
14:22 66.4 °F 46 °F 30.4 in NNE 1.6 mph 5.4 mph 48 % 0 in
14:27 66.4 °F 46.6 °F 30.4 in NNE 3.1 mph 4 mph 49 % 0 in
14:32 66 °F 46.2 °F 30.4 in NNE 2.7 mph 5.6 mph 49 % 0 in
14:37 65.8 °F 46.2 °F 30.4 in NE 3.1 mph 5.6 mph 49 % 0 in
14:42 65.7 °F 45.5 °F 30.4 in NNE 3.1 mph 4.9 mph 48 % 0 in
14:47 66.6 °F 46.8 °F 30.4 in West 1.1 mph 4.9 mph 49 % 0 in
14:48 66.9 °F 47.1 °F 30.4 in Calm   4.7 mph 49 % 0 in
14:53 67.8 °F 47.5 °F 30.4 in Calm   3.8 mph 48 % 0 in
14:58 67.6 °F 47.1 °F 30.4 in SSW 1.3 mph 4.5 mph 48 % 0 in
15:03 67.8 °F 46.8 °F 30.4 in SW 1.6 mph 4.5 mph 47 % 0 in
15:08 68 °F 46.9 °F 30.4 in Calm   3.8 mph 47 % 0 in
15:13 68.2 °F 46 °F 30.4 in Calm   3.8 mph 45 % 0 in
15:18 68 °F 46.4 °F 30.4 in NNE 3.8 mph 3.8 mph 46 % 0 in
15:23 68.4 °F 47.3 °F 30.4 in SSW 2 mph 4.5 mph 47 % 0 in
15:29 68.5 °F 46.9 °F 30.4 in NW 2 mph 4.5 mph 46 % 0 in
15:34 68.4 °F 46.8 °F 30.4 in NNE 1.6 mph 4 mph 46 % 0 in
15:39 68.5 °F 46.9 °F 30.4 in Calm   2.9 mph 46 % 0 in
15:44 68.2 °F 46.6 °F 30.4 in WSW 2 mph 5.4 mph 46 % 0 in
15:49 68.2 °F 46.6 °F 30.4 in Calm   5.4 mph 46 % 0 in
15:54 67.8 °F 46.2 °F 30.4 in West 3.6 mph 4.3 mph 46 % 0 in
15:59 67.6 °F 46 °F 30.4 in South 1.6 mph 4.3 mph 46 % 0 in
16:04 67.6 °F 46 °F 30.4 in WSW 2.7 mph 3.8 mph 46 % 0 in
16:09 67.6 °F 46 °F 30.4 in Calm   3.4 mph 46 % 0 in
16:14 68 °F 46.4 °F 30.4 in WSW 2 mph 3.4 mph 46 % 0 in
16:19 68 °F 45.9 °F 30.4 in Calm   2.7 mph 45 % 0 in
16:24 67.6 °F 45.5 °F 30.4 in NNW 2.7 mph 4.9 mph 45 % 0 in
16:29 67.5 °F 45.3 °F 30.4 in WSW 3.1 mph 4.9 mph 45 % 0 in
16:34 67.1 °F 45.7 °F 30.4 in Calm   3.8 mph 46 % 0 in
16:39 67.1 °F 45.7 °F 30.4 in WNW 3.8 mph 3.8 mph 46 % 0 in
16:44 66.7 °F 44.8 °F 30.4 in West 2.5 mph 4.9 mph 45 % 0 in
16:49 66.7 °F 45.3 °F 30.4 in West 3.4 mph 4.9 mph 46 % 0 in
16:54 66.4 °F 45 °F 30.4 in WSW 4.3 mph 4.7 mph 46 % 0 in
16:59 66.2 °F 44.8 °F 30.4 in West 2 mph 4.7 mph 46 % 0 in
17:04 66.4 °F 45 °F 30.4 in Calm   4.7 mph 46 % 0 in
17:09 66.4 °F 45 °F 30.4 in Calm   4 mph 46 % 0 in
17:14 66.2 °F 44.8 °F 30.4 in Calm   3.6 mph 46 % 0 in
17:19 65.5 °F 44.2 °F 30.4 in NNE 2.5 mph 5.4 mph 46 % 0 in
17:24 64.6 °F 43.9 °F 30.4 in NNW 4.7 mph 6 mph 47 % 0 in
17:29 63.9 °F 43.2 °F 30.4 in NNE 3.6 mph 6.7 mph 47 % 0 in
17:34 63.1 °F 43.2 °F 30.4 in North 2.9 mph 6.7 mph 48 % 0 in
17:39 63 °F 43.3 °F 30.4 in North 4.9 mph 6.3 mph 49 % 0 in
17:44 62.2 °F 43.5 °F 30.4 in NE 3.8 mph 4.9 mph 50 % 0 in
17:49 61.5 °F 43.3 °F 30.4 in North 3.6 mph 5.4 mph 51 % 0 in
17:54 60.8 °F 43 °F 30.4 in NNE 3.8 mph 5.4 mph 52 % 0 in
17:59 60.4 °F 43.2 °F 30.4 in North 2.5 mph 5.6 mph 53 % 0 in
18:04 59.7 °F 44.1 °F 30.4 in North 4 mph 5.6 mph 56 % 0 in
18:09 59.4 °F 44.1 °F 30.4 in North 2.5 mph 4.3 mph 57 % 0 in
18:14 58.8 °F 44.4 °F 30.4 in Calm   4.3 mph 59 % 0 in
18:19 58.5 °F 44.6 °F 30.4 in North 3.6 mph 4.3 mph 60 % 0 in
18:24 58.1 °F 44.8 °F 30.4 in NE 2.2 mph 3.8 mph 61 % 0 in
18:30 57.9 °F 45 °F 30.4 in NNE 2.5 mph 4.3 mph 62 % 0 in
18:35 57.6 °F 45.5 °F 30.4 in NNE 4.7 mph 4.9 mph 64 % 0 in
18:40 57 °F 46.6 °F 30.4 in NE 3.6 mph 8.1 mph 68 % 0 in
18:45 56.5 °F 46.6 °F 30.4 in NE 7.6 mph 8.5 mph 69 % 0 in
18:50 56.3 °F 46.2 °F 30.4 in NE 5.6 mph 8.5 mph 69 % 0 in
18:55 55.9 °F 46.2 °F 30.4 in NE 6 mph 7.6 mph 70 % 0 in
19:00 55.6 °F 46.4 °F 30.4 in NE 4.3 mph 6.3 mph 71 % 0 in
19:05 55.2 °F 46.4 °F 30.4 in NE 5.4 mph 6 mph 72 % 0 in
19:10 54.9 °F 46 °F 30.4 in NE 4 mph 5.8 mph 72 % 0 in
19:15 54.7 °F 46 °F 30.4 in NE 4.3 mph 5.6 mph 73 % 0 in
19:20 54.1 °F 46 °F 30.4 in NE 4.3 mph 5.8 mph 74 % 0 in
19:25 54 °F 46.2 °F 30.4 in NNE 4.3 mph 5.8 mph 75 % 0 in
19:30 53.8 °F 46 °F 30.4 in NE 3.1 mph 5.8 mph 75 % 0 in
19:35 53.2 °F 45.7 °F 30.4 in NNE 4 mph 4.9 mph 75 % 0 in
19:40 53.1 °F 45.7 °F 30.4 in NE 2.9 mph 4.7 mph 76 % 0 in
19:45 52.9 °F 45.5 °F 30.4 in North 2.7 mph 4.7 mph 76 % 0 in
19:50 52.5 °F 46 °F 30.4 in NNE 3.4 mph 4.3 mph 78 % 0 in
19:55 52.5 °F 45.9 °F 30.4 in NNE 3.8 mph 4.3 mph 78 % 0 in
20:00 52.3 °F 46 °F 30.4 in North 3.6 mph 5.6 mph 79 % 0 in
20:05 52.3 °F 46.2 °F 30.4 in North 3.4 mph 6.3 mph 80 % 0 in
20:11 52.3 °F 46 °F 30.4 in North 3.6 mph 6.3 mph 79 % 0 in
20:16 52.2 °F 45.9 °F 30.4 in North 3.8 mph 4.9 mph 79 % 0 in
20:21 52 °F 46 °F 30.4 in North 2.9 mph 4.9 mph 80 % 0 in
20:26 51.6 °F 45.7 °F 30.4 in NNE 3.1 mph 4.9 mph 80 % 0 in
20:31 51.4 °F 45.3 °F 30.4 in NNE 4.3 mph 4.9 mph 80 % 0 in
20:36 51.3 °F 45.7 °F 30.4 in NNE 3.8 mph 4.9 mph 81 % 0 in
20:41 51.3 °F 45.9 °F 30.4 in North 3.6 mph 5.6 mph 82 % 0 in
20:46 50.9 °F 45.7 °F 30.4 in North 3.6 mph 5.6 mph 82 % 0 in
20:51 50.7 °F 45.3 °F 30.4 in North 3.4 mph 4.3 mph 82 % 0 in
20:56 50.7 °F 45.3 °F 30.4 in NE 2.7 mph 4 mph 82 % 0 in
21:01 50.5 °F 45.7 °F 30.4 in North 3.8 mph 4 mph 83 % 0 in
21:06 50.4 °F 45.3 °F 30.4 in NNE 3.6 mph 4 mph 83 % 0 in
21:11 50.4 °F 45.3 °F 30.4 in North 3.4 mph 4 mph 83 % 0 in
21:16 50.2 °F 45.1 °F 30.4 in NNE 2.5 mph 3.8 mph 83 % 0 in
21:21 49.8 °F 45 °F 30.4 in NE 2 mph 3.6 mph 83 % 0 in
21:26 49.5 °F 44.4 °F 30.4 in North 2.7 mph 3.6 mph 83 % 0 in
21:31 49.1 °F 44.2 °F 30.4 in North 1.1 mph 3.1 mph 83 % 0 in
21:36 48.7 °F 43.9 °F 30.4 in North 2.5 mph 2.5 mph 83 % 0 in
21:41 48.6 °F 44.1 °F 30.4 in North 1.6 mph 2.9 mph 84 % 0 in
21:46 48.4 °F 43.9 °F 30.4 in North 1.6 mph 2.9 mph 84 % 0 in
21:51 48.4 °F 44.1 °F 30.4 in North 2.7 mph 2.7 mph 85 % 0 in
21:56 48 °F 43.9 °F 30.4 in Calm   2.7 mph 85 % 0 in
22:01 47.8 °F 43.5 °F 30.4 in North 2.9 mph 2.9 mph 85 % 0 in
22:06 47.7 °F 43.3 °F 30.4 in North 2 mph 2.9 mph 85 % 0 in
22:11 47.3 °F 43.2 °F 30.4 in North 2.7 mph 2.7 mph 85 % 0 in
22:16 47.1 °F 43 °F 30.4 in North 1.1 mph 2.7 mph 85 % 0 in
22:22 46.8 °F 42.4 °F 30.4 in Calm   2.7 mph 85 % 0 in
22:26 46.6 °F 42.3 °F 30.4 in Calm   1.1 mph 85 % 0 in
22:32 46.2 °F 42.3 °F 30.4 in Calm     86 % 0 in
22:37 45.9 °F 42.1 °F 30.4 in Calm     86 % 0 in
22:42 45.7 °F 41.5 °F 30.4 in Calm     86 % 0 in
22:47 45.1 °F 41.2 °F 30.4 in Calm     86 % 0 in
22:52 45 °F 41.2 °F 30.4 in Calm     87 % 0 in
22:57 45 °F 41.2 °F 30.4 in Calm     87 % 0 in
23:02 44.8 °F 41.4 °F 30.4 in Calm     88 % 0 in
23:07 44.4 °F 41.2 °F 30.4 in Calm     88 % 0 in
23:12 44.2 °F 41 °F 30.4 in Calm     88 % 0 in
23:17 44.1 °F 41 °F 30.4 in Calm     89 % 0 in
23:22 44.1 °F 41 °F 30.4 in Calm     89 % 0 in
23:27 43.5 °F 40.8 °F 30.4 in Calm     90 % 0 in
23:32 43.5 °F 40.6 °F 30.4 in Calm     90 % 0 in
23:37 43.3 °F 40.6 °F 30.4 in Calm     90 % 0 in
23:42 43.2 °F 40.5 °F 30.4 in Calm     90 % 0 in
23:47 43 °F 40.5 °F 30.4 in Calm     91 % 0 in
23:52 43 °F 40.5 °F 30.4 in Calm     91 % 0 in
23:57 42.6 °F 40.1 °F 30.4 in Calm     91 % 0 in
Le Gheer Warneton
Courtoisie de Weather Underground - 2.25 mb

Mise a jour : 16-12-17 12:15:12
Généré par Cumulus 1.9.4 (1099)